首页
METAR-TAF:

METAR-TAF

机场 :

佩奇, 匈牙利

纬度: 46-06N, 经度: 018-14E, 海拔: 201米

当前天气观测

该预报发布于8小时和16分钟前的17:15 UTC
风速6节,风向东北
温度 16°C
湿度 77%
气压 1018 hPa
能见度10公里或以上
1500米以下无云,无积雨云

METAR: LHPP 161715Z 04006KT CAVOK 16/12 Q1018

时间: 03:31 (01:31 UTC)

预报

该预报发布于11小时和16分钟前的14:15 UTC
预报有效从16日的 15点(UTC)到 16日的 24点(UTC)
风速6节,风向
能见度10公里或以上
1500米以下无云,无积雨云
短暂存在
从 16日的 15点(UTC)到 16日的 23点(UTC)
能見度: 8000
多云层高于3000英尺, 塔状积云.
阵雨
成为
从 16日的 17点(UTC)到 16日的 20点(UTC)
风速2节,风向多变
成为
从 16日的 21点(UTC)到 16日的 24点(UTC)
能見度: 4000
轻雾

TAF: LHPP 161415Z 1615/1624 35006KT CAVOK TEMPO 1615/1623 8000 SHRA BKN030TCU BECMG 1617/1620 VRB02KT BECMG 1621/1624 4000 BR

超过4000个机场的气象观测和天气预报(METAR&TAF报告)。

可查询的气象台以黄色和红色小点在地图上表示。

将鼠标移到小点上方,可查看气象台名称。

然后点击查看天气观测和预报。

如需切换地图:点击带黑十字的绿色按钮放大地图;点击带横线的绿色按钮缩小地图;或者点击绿色箭头查看邻近地区的地图。


METAR-TAF: